Time;durP1;ratioP1;P1;durP2;ratioP2;P2;SDS_P1;SDS_P2;PMS_P1;PMS_P2;Temp;Humidity;BMP_temperature;BMP_pressure;BME280_temperature;BME280_humidity;BME280_pressure;Samples;Min_cycle;Max_cycle;Signal;HPM_P1;HPM_P2
2022/08/05 00:00:18;;;;;;;6.72;4.32;;;18.20;99.90;;;;;;4917298;29;20044;-82
2022/08/05 00:02:44;;;;;;;6.50;4.53;;;18.10;99.90;;;;;;4919101;29;20469;-82
2022/08/05 00:05:10;;;;;;;6.90;4.68;;;18.00;99.90;;;;;;4919147;29;20036;-82
2022/08/05 00:07:36;;;;;;;7.20;4.43;;;17.90;99.90;;;;;;4893910;29;20054;-82
2022/08/05 00:10:03;;;;;;;6.40;3.70;;;17.80;99.90;;;;;;4918113;29;20100;-82
2022/08/05 00:12:28;;;;;;;7.30;3.95;;;17.80;99.90;;;;;;4917436;29;20114;-83
2022/08/05 00:14:54;;;;;;;9.27;3.90;;;17.80;99.90;;;;;;4917076;29;20052;-83
2022/08/05 00:17:19;;;;;;;6.65;4.30;;;17.80;99.90;;;;;;4909702;29;20558;-83
2022/08/05 00:19:45;;;;;;;5.97;4.20;;;17.80;99.90;;;;;;4907788;29;20066;-83
2022/08/05 00:22:10;;;;;;;6.57;4.88;;;17.70;99.90;;;;;;4901284;29;20142;-83
2022/08/05 00:24:36;;;;;;;6.65;5.25;;;17.80;99.90;;;;;;4901057;29;20048;-83
2022/08/05 00:27:02;;;;;;;11.85;5.07;;;17.80;99.90;;;;;;4915719;29;20036;-83
2022/08/05 00:29:27;;;;;;;15.02;5.72;;;17.80;99.90;;;;;;4916396;29;20042;-83
2022/08/05 00:31:54;;;;;;;7.00;4.32;;;17.90;99.90;;;;;;4916729;29;20144;-83
2022/08/05 00:34:19;;;;;;;7.03;5.63;;;17.90;99.90;;;;;;4916892;29;20108;-83
2022/08/05 00:36:45;;;;;;;8.45;5.60;;;18.00;99.90;;;;;;4898032;29;20048;-83
2022/08/05 00:39:11;;;;;;;7.60;5.03;;;18.00;99.90;;;;;;4910679;29;20491;-83
2022/08/05 00:41:37;;;;;;;9.85;5.47;;;18.00;99.90;;;;;;4916174;29;20499;-83
2022/08/05 00:44:03;;;;;;;8.32;5.78;;;18.00;99.90;;;;;;4916531;29;20040;-83
2022/08/05 00:46:29;;;;;;;7.20;4.97;;;18.00;99.90;;;;;;4915698;29;20044;-84
2022/08/05 00:48:55;;;;;;;8.80;5.50;;;18.00;99.90;;;;;;4908794;29;20036;-84
2022/08/05 00:51:22;;;;;;;9.15;4.93;;;18.00;99.90;;;;;;4916708;29;20040;-84
2022/08/05 00:53:48;;;;;;;12.00;5.45;;;18.00;99.90;;;;;;4916941;29;20096;-83
2022/08/05 00:56:15;;;;;;;8.05;5.32;;;17.90;99.90;;;;;;4915799;29;20075;-83
2022/08/05 00:58:41;;;;;;;8.57;4.88;;;18.00;99.90;;;;;;4908118;29;20052;-83
2022/08/05 01:01:06;;;;;;;7.05;5.25;;;18.10;99.90;;;;;;4916419;29;20060;-84
2022/08/05 01:03:32;;;;;;;9.50;4.18;;;18.10;99.90;;;;;;4915408;29;20048;-83
2022/08/05 01:05:58;;;;;;;7.75;5.10;;;18.10;99.90;;;;;;4885350;29;20379;-83
2022/08/05 01:08:23;;;;;;;8.10;5.03;;;18.20;99.90;;;;;;4904415;29;20040;-83
2022/08/05 01:11:03;;;;;;;9.02;6.57;;;18.20;99.90;;;;;;4916018;29;20171;-83
2022/08/05 01:13:55;;;;;;;8.48;6.07;;;18.20;99.90;;;;;;4916878;29;20071;-83
2022/08/05 01:16:26;;;;;;;10.05;6.40;;;18.10;99.90;;;;;;4907263;29;20391;-83
2022/08/05 01:18:58;;;;;;;7.72;5.65;;;18.20;99.90;;;;;;4916462;29;20108;-83
2022/08/05 01:21:50;;;;;;;8.70;4.25;;;18.20;99.90;;;;;;4918035;29;20040;-83
2022/08/05 01:24:51;;;;;;;8.82;5.57;;;18.20;99.90;;;;;;4920667;29;20050;-83
2022/08/05 01:27:50;;;;;;;10.82;6.63;;;18.10;99.90;;;;;;4905818;29;20156;-83
2022/08/05 01:30:16;;;;;;;12.80;6.32;;;18.00;99.90;;;;;;4899165;29;20040;-83
2022/08/05 01:32:44;;;;;;;9.20;5.95;;;17.90;99.90;;;;;;4915763;29;20035;-83
2022/08/05 01:35:16;;;;;;;9.38;5.68;;;17.90;99.90;;;;;;4916995;29;20048;-83
2022/08/05 01:37:52;;;;;;;8.70;5.25;;;18.00;99.90;;;;;;4939489;23;20065;-77
2022/08/05 01:40:20;;;;;;;8.77;5.40;;;18.00;99.90;;;;;;4916988;29;20409;-77
2022/08/05 01:42:49;;;;;;;8.77;6.05;;;18.00;99.90;;;;;;4934074;29;20470;-77
2022/08/05 01:45:15;;;;;;;8.35;5.68;;;18.10;99.90;;;;;;4934429;29;20055;-77
2022/08/05 01:47:42;;;;;;;9.50;5.35;;;18.10;99.90;;;;;;4926595;29;20039;-77
2022/08/05 01:50:11;;;;;;;8.05;4.70;;;18.10;99.90;;;;;;4931267;29;20050;-77
2022/08/05 01:52:40;;;;;;;9.18;5.03;;;18.20;99.90;;;;;;4915740;29;20050;-77
2022/08/05 01:55:09;;;;;;;10.32;5.38;;;18.20;99.90;;;;;;4915655;29;20558;-77
2022/08/05 01:57:39;;;;;;;5.88;5.25;;;18.20;99.90;;;;;;4913804;29;20047;-77
2022/08/05 02:00:08;;;;;;;9.50;5.10;;;18.20;99.90;;;;;;4896682;29;20048;-77
2022/08/05 02:02:38;;;;;;;9.80;4.32;;;18.10;99.90;;;;;;4896858;29;20045;-77
2022/08/05 02:05:07;;;;;;;9.70;4.72;;;18.20;99.90;;;;;;4912376;29;20089;-77
2022/08/05 02:07:34;;;;;;;8.68;4.93;;;18.20;99.90;;;;;;4910212;29;20142;-77
2022/08/05 02:10:01;;;;;;;7.03;5.30;;;18.20;99.90;;;;;;4916588;29;20044;-77
2022/08/05 02:12:36;;;;;;;8.27;4.55;;;18.20;99.90;;;;;;4915146;29;20414;-77
2022/08/05 02:15:05;;;;;;;;;;;18.20;99.90;;;;;;4916046;29;20095;-77
2022/08/05 02:17:38;;;;;;;7.18;5.15;;;18.10;99.90;;;;;;4913977;29;19919;-77
2022/08/05 02:20:10;;;;;;;5.65;4.63;;;18.10;99.90;;;;;;4896763;29;20060;-77
2022/08/05 02:22:43;;;;;;;8.45;4.95;;;18.10;99.90;;;;;;4912444;29;20383;-77
2022/08/05 02:25:18;;;;;;;10.77;5.05;;;18.20;99.90;;;;;;4910466;29;20044;-77
2022/08/05 02:27:47;;;;;;;6.63;5.50;;;18.20;99.90;;;;;;4911346;29;20059;-77
2022/08/05 02:30:15;;;;;;;6.35;5.13;;;18.20;99.90;;;;;;4896269;29;20128;-77
2022/08/05 02:32:45;;;;;;;5.05;4.15;;;18.10;99.90;;;;;;4896009;29;20041;-77
2022/08/05 02:35:15;;;;;;;5.97;3.97;;;18.10;99.90;;;;;;4911367;29;20032;-77
2022/08/05 02:37:43;;;;;;;4.70;3.65;;;18.10;99.90;;;;;;4896518;29;20051;-77
2022/08/05 02:40:09;;;;;;;7.80;4.03;;;18.00;99.90;;;;;;4909038;29;20059;-77
2022/08/05 02:42:37;;;;;;;5.47;3.60;;;18.00;99.90;;;;;;4915006;29;20083;-77
2022/08/05 02:45:05;;;;;;;4.75;3.40;;;18.00;99.90;;;;;;4914620;29;20051;-77
2022/08/05 02:47:34;;;;;;;6.55;4.75;;;18.00;99.90;;;;;;4913238;29;20039;-77
2022/08/05 02:50:01;;;;;;;5.05;3.53;;;18.00;99.90;;;;;;4895392;29;20054;-77
2022/08/05 02:52:28;;;;;;;7.85;3.67;;;18.00;99.90;;;;;;4895747;29;20538;-77
2022/08/05 02:54:54;;;;;;;6.95;4.68;;;18.10;99.90;;;;;;4904624;29;20119;-77
2022/08/05 02:57:21;;;;;;;6.32;3.90;;;18.10;99.90;;;;;;4929003;29;20123;-77
2022/08/05 02:59:49;;;;;;;8.13;3.45;;;18.10;99.90;;;;;;4896103;29;20084;-77
2022/08/05 03:02:18;;;;;;;4.63;3.70;;;18.00;99.90;;;;;;4895831;29;20164;-77
2022/08/05 03:04:45;;;;;;;7.13;3.67;;;18.00;99.90;;;;;;4915534;29;20536;-77
2022/08/05 03:07:12;;;;;;;5.97;4.25;;;18.00;99.90;;;;;;4924517;29;20092;-77
2022/08/05 03:09:41;;;;;;;5.50;3.22;;;18.00;99.90;;;;;;4894964;29;20059;-77
2022/08/05 03:12:07;;;;;;;5.25;3.03;;;18.10;99.90;;;;;;4910945;29;20051;-77
2022/08/05 03:14:32;;;;;;;7.45;3.20;;;18.10;99.90;;;;;;4940597;29;20076;-77
2022/08/05 03:16:59;;;;;;;6.50;3.15;;;18.10;99.90;;;;;;4925305;29;20122;-77
2022/08/05 03:19:25;;;;;;;6.07;3.28;;;18.10;99.90;;;;;;4930336;29;20125;-77
2022/08/05 03:21:50;;;;;;;6.68;4.00;;;18.10;99.90;;;;;;4914523;29;20502;-77
2022/08/05 03:24:20;;;;;;;5.38;2.72;;;18.10;99.90;;;;;;4914050;29;20131;-77
2022/08/05 03:26:46;;;;;;;6.05;4.22;;;18.10;99.90;;;;;;4913400;29;20096;-77
2022/08/05 03:29:12;;;;;;;3.88;3.40;;;18.10;99.90;;;;;;4913513;29;20059;-77
2022/08/05 03:31:38;;;;;;;4.22;2.88;;;18.10;99.90;;;;;;4913252;29;20406;-77
2022/08/05 03:34:04;;;;;;;6.32;3.72;;;18.10;99.90;;;;;;4916843;29;20356;-76
2022/08/05 03:36:30;;;;;;;6.85;3.33;;;18.10;99.90;;;;;;4916641;29;20044;-77
2022/08/05 03:38:56;;;;;;;4.55;2.92;;;18.10;99.90;;;;;;4910767;29;20522;-77
2022/08/05 03:41:22;;;;;;;7.22;3.90;;;18.10;99.90;;;;;;4899236;29;20060;-77
2022/08/05 03:43:47;;;;;;;5.03;3.17;;;18.00;99.90;;;;;;4894917;29;20048;-77
2022/08/05 03:46:14;;;;;;;9.82;4.10;;;18.00;99.90;;;;;;4901954;29;20139;-77
2022/08/05 03:48:39;;;;;;;3.67;2.88;;;18.00;99.90;;;;;;4912685;29;20119;-77
2022/08/05 03:51:34;;;;;;;8.27;2.75;;;18.00;99.90;;;;;;4913990;29;20083;-77
2022/08/05 03:54:06;;;;;;;7.65;2.97;;;18.00;99.90;;;;;;4913448;29;20411;-77
2022/08/05 03:56:37;;;;;;;5.15;3.42;;;18.00;99.90;;;;;;4928927;29;20433;-77
2022/08/05 03:59:18;;;;;;;4.70;2.75;;;18.00;99.90;;;;;;4913380;29;20411;-77
2022/08/05 04:01:47;;;;;;;4.78;3.33;;;18.00;99.90;;;;;;4913695;29;20044;-77
2022/08/05 04:04:18;;;;;;;7.18;3.10;;;17.90;99.90;;;;;;4905617;29;20040;-77
2022/08/05 04:06:45;;;;;;;5.05;2.75;;;17.90;99.90;;;;;;4912868;29;20514;-77
2022/08/05 04:09:11;;;;;;;5.60;3.22;;;17.90;99.90;;;;;;4913475;29;20096;-77
2022/08/05 04:11:38;;;;;;;7.18;2.95;;;17.90;99.90;;;;;;4913930;29;20055;-77
2022/08/05 04:14:05;;;;;;;3.47;2.40;;;17.90;99.90;;;;;;4913636;29;20127;-77
2022/08/05 04:16:32;;;;;;;8.07;3.03;;;17.90;99.90;;;;;;4923108;29;20440;-77
2022/08/05 04:18:57;;;;;;;4.15;2.85;;;17.90;99.90;;;;;;4926123;29;20109;-77
2022/08/05 04:21:23;;;;;;;3.95;2.80;;;17.90;99.90;;;;;;4894823;29;20044;-77
2022/08/05 04:23:49;;;;;;;4.47;3.38;;;17.90;99.90;;;;;;4882003;29;20076;-77
2022/08/05 04:26:14;;;;;;;3.60;2.72;;;17.90;99.90;;;;;;4909137;29;20083;-77
2022/08/05 04:28:40;;;;;;;7.60;2.75;;;17.90;99.90;;;;;;4907653;29;20582;-77
2022/08/05 04:31:06;;;;;;;4.78;2.47;;;17.90;99.90;;;;;;4913697;29;20052;-77
2022/08/05 04:33:32;;;;;;;5.55;2.25;;;17.90;99.90;;;;;;4918851;29;20484;-77
2022/08/05 04:35:57;;;;;;;4.82;3.38;;;17.90;99.90;;;;;;4914666;29;20044;-77
2022/08/05 04:38:23;;;;;;;7.90;3.58;;;17.90;99.90;;;;;;4915901;29;20501;-77
2022/08/05 04:40:49;;;;;;;4.97;2.53;;;17.80;99.90;;;;;;4910505;29;20044;-77
2022/08/05 04:43:14;;;;;;;6.82;2.20;;;17.80;99.90;;;;;;4914008;29;20047;-77
2022/08/05 04:45:40;;;;;;;5.93;3.05;;;17.70;99.90;;;;;;4915425;29;20051;-77
2022/08/05 04:48:11;;;;;;;8.05;2.72;;;17.70;99.90;;;;;;4896807;29;20040;-77
2022/08/05 04:50:42;;;;;;;4.78;2.85;;;17.70;99.90;;;;;;4901220;29;20063;-77
2022/08/05 04:53:10;;;;;;;4.85;2.85;;;17.70;99.90;;;;;;4916610;29;20040;-77
2022/08/05 04:55:39;;;;;;;6.70;3.90;;;17.80;99.90;;;;;;4915557;29;20126;-77
2022/08/05 04:58:07;;;;;;;5.30;2.97;;;17.80;99.90;;;;;;4911627;29;20040;-77
2022/08/05 05:00:33;;;;;;;3.83;2.55;;;17.80;99.90;;;;;;4916249;29;20056;-77
2022/08/05 05:02:59;;;;;;;3.63;2.20;;;17.80;99.90;;;;;;4900693;29;20040;-77
2022/08/05 05:05:25;;;;;;;4.43;2.75;;;17.80;99.90;;;;;;4915820;29;20036;-77
2022/08/05 05:07:51;;;;;;;5.85;2.67;;;17.80;99.90;;;;;;4891261;29;20498;-77
2022/08/05 05:10:16;;;;;;;5.43;2.33;;;17.90;99.90;;;;;;4900423;29;20052;-77
2022/08/05 05:12:42;;;;;;;4.38;2.17;;;17.90;99.90;;;;;;4916715;29;20392;-77
2022/08/05 05:15:08;;;;;;;5.55;2.38;;;17.90;99.90;;;;;;4915649;29;20036;-77
2022/08/05 05:17:39;;;;;;;8.30;2.55;;;17.90;99.90;;;;;;4933781;29;20044;-77
2022/08/05 05:20:06;;;;;;;6.45;2.88;;;17.90;99.90;;;;;;4896652;29;20515;-77
2022/08/05 05:22:33;;;;;;;5.68;2.47;;;18.00;99.90;;;;;;4881683;29;20053;-77
2022/08/05 05:24:58;;;;;;;6.68;2.30;;;18.00;99.90;;;;;;4897542;29;20132;-77
2022/08/05 05:27:24;;;;;;;2.10;1.83;;;18.00;99.90;;;;;;4916281;29;20168;-77
2022/08/05 05:29:49;;;;;;;4.68;2.42;;;18.10;99.90;;;;;;4915660;29;20491;-77
2022/08/05 05:32:15;;;;;;;5.85;2.53;;;18.20;99.90;;;;;;4913595;29;20040;-77
2022/08/05 05:34:40;;;;;;;4.90;2.55;;;18.10;99.90;;;;;;4915901;29;20112;-77
2022/08/05 05:37:06;;;;;;;9.77;2.85;;;18.20;99.90;;;;;;4914991;29;20127;-77
2022/08/05 05:39:31;;;;;;;3.90;2.30;;;18.20;99.90;;;;;;4915447;29;20128;-77
2022/08/05 05:41:57;;;;;;;5.85;2.58;;;18.20;99.90;;;;;;4899593;29;20131;-77
2022/08/05 05:44:22;;;;;;;4.30;2.50;;;18.20;99.90;;;;;;4895852;29;20127;-77
2022/08/05 05:46:48;;;;;;;5.68;2.50;;;18.30;99.90;;;;;;4913713;29;20467;-77
2022/08/05 05:49:13;;;;;;;5.57;2.72;;;18.20;99.90;;;;;;4914452;29;20048;-77
2022/08/05 05:51:39;;;;;;;3.92;2.22;;;18.20;99.90;;;;;;4915765;29;20114;-78
2022/08/05 05:54:05;;;;;;;8.43;3.53;;;18.10;99.90;;;;;;4915627;29;20036;-77
2022/08/05 05:56:30;;;;;;;5.28;3.08;;;18.00;99.90;;;;;;4914382;29;20043;-77
2022/08/05 05:58:56;;;;;;;3.53;2.50;;;17.90;99.90;;;;;;4915207;29;20143;-77
2022/08/05 06:01:22;;;;;;;6.07;3.33;;;17.80;99.90;;;;;;4915739;29;20566;-77
2022/08/05 06:03:47;;;;;;;3.30;2.67;;;17.80;99.90;;;;;;4894806;29;20546;-77
2022/08/05 06:06:13;;;;;;;3.55;2.25;;;17.80;99.90;;;;;;4915241;29;20177;-77
2022/08/05 06:08:38;;;;;;;4.18;3.00;;;17.90;99.90;;;;;;4914687;29;20051;-77
2022/08/05 06:11:04;;;;;;;3.58;2.38;;;17.90;99.90;;;;;;4915360;29;20091;-77
2022/08/05 06:13:30;;;;;;;4.90;3.00;;;17.90;99.90;;;;;;4915094;29;20044;-77
2022/08/05 06:15:56;;;;;;;4.30;3.42;;;17.90;99.90;;;;;;4914392;29;20056;-77
2022/08/05 06:18:21;;;;;;;4.57;2.63;;;17.90;99.90;;;;;;4919991;29;20067;-77
2022/08/05 06:20:47;;;;;;;6.13;3.28;;;17.90;99.90;;;;;;4914284;29;20044;-77
2022/08/05 06:23:12;;;;;;;6.65;3.65;;;17.90;99.90;;;;;;4899288;29;20664;-77
2022/08/05 06:25:38;;;;;;;4.30;3.45;;;18.00;99.90;;;;;;4919727;29;20512;-77
2022/08/05 06:28:04;;;;;;;5.95;3.30;;;18.10;99.90;;;;;;4914511;29;20475;-78
2022/08/05 06:30:29;;;;;;;8.90;3.38;;;18.20;99.90;;;;;;4919279;29;20040;-77
2022/08/05 06:32:55;;;;;;;7.20;3.72;;;18.20;99.90;;;;;;4914561;29;20499;-77
2022/08/05 06:35:20;;;;;;;5.43;4.03;;;18.30;99.90;;;;;;4914232;29;20088;-77
2022/08/05 06:37:46;;;;;;;4.95;3.08;;;18.50;99.90;;;;;;4911743;29;20121;-77
2022/08/05 06:40:12;;;;;;;5.88;3.13;;;18.60;99.90;;;;;;4892367;29;20104;-77
2022/08/05 06:42:38;;;;;;;4.93;3.10;;;18.80;99.90;;;;;;4909365;29;20396;-77
2022/08/05 06:45:04;;;;;;;5.55;2.60;;;19.00;99.90;;;;;;4930918;29;20051;-77
2022/08/05 06:47:29;;;;;;;3.63;2.55;;;18.90;99.90;;;;;;4911020;29;20047;-77
2022/08/05 06:49:55;;;;;;;2.47;2.15;;;19.00;99.90;;;;;;4914014;29;20048;-77
2022/08/05 06:52:21;;;;;;;6.88;2.95;;;19.20;99.90;;;;;;4898694;29;20043;-77
2022/08/05 06:54:46;;;;;;;2.75;2.55;;;19.30;99.90;;;;;;4913469;29;20037;-77
2022/08/05 06:57:13;;;;;;;4.82;2.30;;;19.40;99.90;;;;;;4910176;29;20103;-77
2022/08/05 06:59:40;;;;;;;4.90;1.67;;;19.50;99.90;;;;;;4916889;29;20055;-76
2022/08/05 07:02:06;;;;;;;4.22;2.40;;;19.50;99.90;;;;;;4931410;29;20040;-77
2022/08/05 07:04:31;;;;;;;3.13;2.15;;;19.60;99.90;;;;;;4930300;29;20096;-77
2022/08/05 07:06:57;;;;;;;5.78;2.85;;;19.60;99.90;;;;;;4901110;29;20056;-78
2022/08/05 07:09:22;;;;;;;4.40;1.75;;;19.60;99.90;;;;;;4913340;29;20040;-77
2022/08/05 07:11:48;;;;;;;5.03;1.73;;;19.60;99.90;;;;;;4913960;29;20040;-77
2022/08/05 07:16:59;;;;;;;2.25;1.30;;;20.00;99.90;;;;;;4923768;29;20044;-77
2022/08/05 07:19:27;;;;;;;3.65;1.30;;;20.10;99.90;;;;;;4906221;29;20492;-77
2022/08/05 07:21:54;;;;;;;3.75;1.20;;;20.30;99.90;;;;;;4893045;29;20087;-77
2022/08/05 07:24:20;;;;;;;2.97;1.15;;;20.40;99.90;;;;;;4914031;29;20111;-77
2022/08/05 07:26:46;;;;;;;2.63;1.73;;;20.40;99.90;;;;;;4912890;29;20290;-77
2022/08/05 07:29:12;;;;;;;1.50;0.75;;;20.50;99.90;;;;;;4913568;29;20044;-77
2022/08/05 07:31:38;;;;;;;7.00;1.42;;;20.60;99.90;;;;;;4929466;29;20609;-76
2022/08/05 07:34:04;;;;;;;5.32;1.45;;;20.50;99.90;;;;;;4913847;29;20044;-76
2022/08/05 07:36:32;;;;;;;3.63;1.23;;;20.50;99.90;;;;;;4912940;29;20411;-77
2022/08/05 07:39:01;;;;;;;3.30;0.80;;;20.60;99.90;;;;;;4898271;29;20048;-77
2022/08/05 07:41:27;;;;;;;1.77;0.82;;;20.70;99.90;;;;;;4896990;29;20043;-77
2022/08/05 07:43:54;;;;;;;3.33;0.70;;;20.70;99.90;;;;;;4907002;29;20071;-78
2022/08/05 07:46:19;;;;;;;5.15;1.40;;;20.80;99.90;;;;;;4928466;29;20051;-77
2022/08/05 07:48:45;;;;;;;2.97;0.50;;;20.90;99.90;;;;;;4904626;29;20048;-78
2022/08/05 07:51:11;;;;;;;2.70;0.60;;;21.00;99.90;;;;;;4895226;29;20502;-78
2022/08/05 07:53:37;;;;;;;3.65;1.10;;;21.20;99.90;;;;;;4907319;29;20048;-78
2022/08/05 07:56:03;;;;;;;1.67;0.40;;;21.50;99.90;;;;;;4897372;29;20032;-78
2022/08/05 07:58:29;;;;;;;1.77;0.30;;;21.80;99.90;;;;;;4912068;29;20083;-78
2022/08/05 08:00:55;;;;;;;1.80;0.35;;;22.00;99.90;;;;;;4896864;29;20080;-78
2022/08/05 08:03:20;;;;;;;1.15;0.20;;;22.10;99.90;;;;;;4904578;29;20041;-78
2022/08/05 08:05:46;;;;;;;3.05;0.98;;;22.10;99.90;;;;;;4913580;29;20079;-78
2022/08/05 08:08:13;;;;;;;1.50;0.22;;;22.10;99.90;;;;;;4906530;29;20133;-78
2022/08/05 08:10:39;;;;;;;3.15;0.52;;;22.10;99.90;;;;;;4895679;29;20652;-78
2022/08/05 08:13:05;;;;;;;1.70;0.30;;;22.10;99.90;;;;;;4917441;29;20032;-78
2022/08/05 08:15:30;;;;;;;2.08;0.30;;;22.00;99.90;;;;;;4916916;29;20550;-78
2022/08/05 08:17:56;;;;;;;2.03;0.60;;;22.10;99.90;;;;;;4915286;29;20126;-78
2022/08/05 08:20:23;;;;;;;1.67;0.30;;;22.20;99.90;;;;;;4917401;29;20048;-78
2022/08/05 08:23:01;;;;;;;1.08;0.30;;;22.00;99.90;;;;;;4916619;29;20436;-78
2022/08/05 08:25:28;;;;;;;2.05;0.30;;;21.90;99.90;;;;;;4917190;29;20084;-78
2022/08/05 08:27:54;;;;;;;2.22;0.30;;;21.90;99.90;;;;;;4932798;29;20083;-78
2022/08/05 08:30:20;;;;;;;1.50;0.30;;;22.30;99.90;;;;;;4917014;29;20048;-78
2022/08/05 08:32:46;;;;;;;0.95;0.20;;;22.30;99.90;;;;;;4932349;29;20503;-78
2022/08/05 08:35:11;;;;;;;0.80;0.30;;;22.40;99.90;;;;;;4917057;29;20040;-78
2022/08/05 08:37:37;;;;;;;2.05;0.43;;;22.50;99.90;;;;;;4893477;29;20054;-78
2022/08/05 08:40:03;;;;;;;1.45;0.20;;;22.50;99.90;;;;;;4917021;29;20040;-78
2022/08/05 08:42:30;;;;;;;0.90;0.20;;;22.70;99.90;;;;;;4910153;29;20040;-79
2022/08/05 08:44:56;;;;;;;1.25;0.25;;;22.70;99.90;;;;;;4917310;29;20050;-79
2022/08/05 08:47:26;;;;;;;1.77;0.20;;;22.60;99.90;;;;;;4933425;29;20491;-79
2022/08/05 08:49:55;;;;;;;2.45;0.20;;;22.60;99.90;;;;;;4907538;29;20040;-78
2022/08/05 08:52:28;;;;;;;0.60;0.20;;;22.70;99.90;;;;;;4915860;29;20047;-78
2022/08/05 08:54:55;;;;;;;1.63;0.20;;;22.70;99.90;;;;;;4901118;29;20040;-78
2022/08/05 08:57:21;;;;;;;1.65;0.20;;;22.70;99.90;;;;;;4916712;29;20040;-78
2022/08/05 08:59:48;;;;;;;1.80;0.20;;;22.70;99.90;;;;;;4918940;29;20091;-78
2022/08/05 09:02:14;;;;;;;2.85;1.45;;;22.80;99.90;;;;;;4915515;29;20123;-77
2022/08/05 09:04:40;;;;;;;1.00;0.25;;;22.80;99.90;;;;;;4914405;29;20091;-78
2022/08/05 09:07:06;;;;;;;1.52;0.20;;;23.00;99.90;;;;;;4882149;29;20651;-77
2022/08/05 09:09:36;;;;;;;2.08;0.10;;;22.90;99.90;;;;;;4899698;29;20056;-78
2022/08/05 09:12:03;;;;;;;0.40;0.10;;;23.00;99.90;;;;;;4901159;29;20051;-78
2022/08/05 09:14:31;;;;;;;2.85;0.65;;;22.90;99.90;;;;;;4920752;29;20496;-78
2022/08/05 09:16:58;;;;;;;1.83;0.32;;;22.70;99.90;;;;;;4914509;29;20396;-78
2022/08/05 09:19:23;;;;;;;0.80;0.10;;;22.60;99.90;;;;;;4917190;29;20051;-78
2022/08/05 09:21:49;;;;;;;1.85;0.10;;;22.70;99.90;;;;;;4915607;29;20048;-78
2022/08/05 09:24:14;;;;;;;0.40;0.10;;;23.00;99.90;;;;;;4917431;29;20352;-78
2022/08/05 09:26:40;;;;;;;1.13;0.10;;;23.20;99.90;;;;;;4915211;29;20306;-78
2022/08/05 09:29:06;;;;;;;0.70;0.20;;;23.20;99.90;;;;;;4914795;29;20080;-78
2022/08/05 09:31:33;;;;;;;1.55;0.20;;;23.30;99.90;;;;;;4916325;29;20514;-79
2022/08/05 09:34:02;;;;;;;5.45;1.17;;;23.20;99.90;;;;;;4913116;29;20119;-78
2022/08/05 09:36:43;;;;;;;0.98;0.22;;;23.00;99.90;;;;;;4912865;29;20076;-78
2022/08/05 09:39:12;;;;;;;10.07;6.63;;;23.00;99.90;;;;;;4908112;29;20052;-78
2022/08/05 09:42:00;;;;;;;11.07;7.53;;;23.00;99.90;;;;;;4915578;29;20048;-78
2022/08/05 09:44:34;;;;;;;2.00;0.20;;;23.60;99.90;;;;;;4931762;29;20059;-77
2022/08/05 09:47:19;;;;;;;0.60;0.10;;;24.10;99.90;;;;;;4904824;29;20102;-77
2022/08/05 09:49:50;;;;;;;2.65;0.10;;;24.20;99.90;;;;;;4912112;29;20052;-77
2022/08/05 09:52:28;;;;;;;2.95;0.20;;;23.80;99.90;;;;;;4927756;29;20112;-76
2022/08/05 09:55:05;;;;;;;9.85;4.65;;;23.60;99.90;;;;;;4897633;29;20047;-76
2022/08/05 09:57:32;;;;;;;20.17;11.43;;;23.50;99.90;;;;;;4907343;29;20040;-76
2022/08/05 10:00:10;;;;;;;2.45;0.93;;;23.60;99.90;;;;;;4911123;29;20051;-76
2022/08/05 10:02:39;;;;;;;2.25;0.20;;;23.70;99.90;;;;;;4914576;29;20051;-76
2022/08/05 10:05:13;;;;;;;1.58;0.30;;;23.70;99.90;;;;;;4915591;29;20035;-76
2022/08/05 10:08:05;;;;;;;1.20;0.10;;;23.70;99.30;;;;;;4913741;29;20099;-76
2022/08/05 10:10:48;;;;;;;0.90;0.15;;;23.60;97.10;;;;;;4905477;29;20616;-77
2022/08/05 10:13:37;;;;;;;0.45;0.05;;;23.50;95.70;;;;;;4909965;29;20093;-76
2022/08/05 10:16:04;;;;;;;1.65;0.13;;;23.40;92.90;;;;;;4906595;29;20041;-77
2022/08/05 10:18:31;;;;;;;0.73;0.10;;;23.30;93.20;;;;;;4919007;29;20032;-77
2022/08/05 10:21:03;;;;;;;0.60;0.10;;;23.30;93.50;;;;;;4910228;29;20080;-77
2022/08/05 10:23:35;;;;;;;0.80;0.10;;;23.70;92.00;;;;;;4911782;29;20403;-77
2022/08/05 10:26:06;;;;;;;2.20;0.10;;;24.00;92.10;;;;;;4914925;29;20439;-77
2022/08/05 10:28:33;;;;;;;0.50;0.30;;;24.00;90.70;;;;;;4892812;29;20359;-77
2022/08/05 10:30:59;;;;;;;2.10;0.10;;;23.80;90.00;;;;;;4911791;29;20122;-77
2022/08/05 10:33:28;;;;;;;1.25;0.20;;;23.90;87.30;;;;;;4904624;29;20047;-77
2022/08/05 10:35:55;;;;;;;2.25;0.10;;;24.00;85.80;;;;;;4896097;29;20119;-77
2022/08/05 10:38:23;;;;;;;1.38;0.10;;;24.30;84.70;;;;;;4911247;29;20119;-77
2022/08/05 10:40:48;;;;;;;0.35;0.22;;;24.60;84.90;;;;;;4914535;29;20110;-77
2022/08/05 10:43:47;;;;;;;2.13;0.10;;;24.80;83.00;;;;;;4897841;29;20056;-77
2022/08/05 10:46:15;;;;;;;2.60;1.42;;;25.00;80.00;;;;;;4914579;29;20036;-77
2022/08/05 10:48:49;;;;;;;2.28;0.13;;;25.10;81.20;;;;;;4925098;29;20048;-77
2022/08/05 10:51:17;;;;;;;6.73;2.10;;;25.40;76.50;;;;;;4919564;29;20116;-77
2022/08/05 10:53:56;;;;;;;3.65;1.75;;;25.40;77.10;;;;;;4929651;29;20040;-77
2022/08/05 10:56:24;;;;;;;1.02;0.10;;;25.60;74.00;;;;;;4913516;29;20075;-77
2022/08/05 10:58:53;;;;;;;4.53;1.20;;;25.70;73.60;;;;;;4911057;29;20673;-77
2022/08/05 11:01:33;;;;;;;0.93;0.10;;;25.70;72.50;;;;;;4904178;29;20048;-77
2022/08/05 11:04:00;;;;;;;1.17;0.10;;;25.70;70.30;;;;;;4890528;29;20048;-77
2022/08/05 11:06:26;;;;;;;0.40;0.10;;;25.80;69.70;;;;;;4912685;29;20048;-77
2022/08/05 11:09:10;;;;;;;1.20;0.10;;;25.80;70.50;;;;;;4906671;29;20396;-77
2022/08/05 11:11:36;;;;;;;2.55;0.10;;;25.80;69.10;;;;;;4927701;29;20073;-78
2022/08/05 11:14:03;;;;;;;0.75;0.10;;;25.80;71.00;;;;;;4929753;29;20036;-78
2022/08/05 11:16:30;;;;;;;1.80;0.17;;;25.80;69.50;;;;;;4914375;29;20130;-77
2022/08/05 11:19:24;;;;;;;2.15;0.00;;;25.80;62.50;;;;;;4919049;29;20525;-78
2022/08/05 11:21:50;;;;;;;1.02;0.10;;;25.80;61.30;;;;;;4913804;29;20047;-78
2022/08/05 11:24:16;;;;;;;1.80;0.10;;;25.70;62.10;;;;;;4913322;29;20503;-78
2022/08/05 11:26:41;;;;;;;1.65;0.00;;;26.00;58.30;;;;;;4900775;29;20047;-76
2022/08/05 11:29:27;;;;;;;1.17;0.00;;;26.10;54.50;;;;;;4908374;29;20048;-78
2022/08/05 11:32:24;;;;;;;0.20;0.00;;;26.10;52.70;;;;;;4884418;29;20049;-78
2022/08/05 11:34:50;;;;;;;0.93;0.00;;;26.30;49.70;;;;;;4911014;29;20037;-78
2022/08/05 11:37:41;;;;;;;0.38;0.10;;;26.10;49.90;;;;;;4905412;29;20050;-78
2022/08/05 11:40:07;;;;;;;0.65;0.00;;;26.00;48.80;;;;;;4914236;29;20090;-78
2022/08/05 11:42:33;;;;;;;0.88;0.10;;;26.00;50.40;;;;;;4913999;29;20113;-78
2022/08/05 11:45:04;;;;;;;0.47;0.10;;;26.40;50.20;;;;;;4915240;29;20446;-78
2022/08/05 11:47:34;;;;;;;0.30;0.00;;;26.50;49.00;;;;;;4917875;29;20051;-78
2022/08/05 11:49:59;;;;;;;1.15;0.00;;;26.70;49.50;;;;;;4917846;29;20044;-78
2022/08/05 11:52:27;;;;;;;0.40;0.00;;;26.80;48.70;;;;;;4917641;29;20091;-78
2022/08/05 11:54:53;;;;;;;0.28;0.00;;;26.90;49.80;;;;;;4902345;29;20044;-78
2022/08/05 11:57:19;;;;;;;0.65;0.00;;;26.70;49.30;;;;;;4917765;29;20407;-78
2022/08/05 11:59:46;;;;;;;1.08;0.00;;;26.50;49.40;;;;;;4917549;29;20044;-78
2022/08/05 12:02:12;;;;;;;0.95;0.00;;;26.50;47.90;;;;;;4917762;29;20055;-78
2022/08/05 12:04:41;;;;;;;0.70;0.00;;;26.70;48.30;;;;;;4917748;29;20044;-78
2022/08/05 12:07:08;;;;;;;0.20;0.00;;;26.80;48.40;;;;;;4917537;29;20079;-78
2022/08/05 12:09:39;;;;;;;1.52;0.00;;;26.90;48.50;;;;;;4917509;29;20055;-78
2022/08/05 12:12:09;;;;;;;0.88;0.15;;;26.60;48.70;;;;;;4917926;29;20079;-78
2022/08/05 12:14:41;;;;;;;0.88;0.00;;;26.30;48.90;;;;;;4917653;29;20087;-78
2022/08/05 12:17:12;;;;;;;1.40;0.00;;;26.20;49.30;;;;;;4917794;29;20110;-78
2022/08/05 12:19:43;;;;;;;1.05;0.08;;;25.90;49.70;;;;;;4917415;29;20123;-78
2022/08/05 12:22:09;;;;;;;2.53;0.08;;;25.60;49.80;;;;;;4917938;29;20062;-78
2022/08/05 12:24:39;;;;;;;0.98;0.13;;;25.40;50.40;;;;;;4917234;29;20052;-78
2022/08/05 12:27:05;;;;;;;2.35;0.10;;;25.30;51.20;;;;;;4917446;29;20051;-78
2022/08/05 12:29:30;;;;;;;1.35;0.20;;;24.90;52.20;;;;;;4916907;29;20124;-78
2022/08/05 12:31:58;;;;;;;0.82;0.00;;;24.60;53.40;;;;;;4917166;29;20059;-78
2022/08/05 12:34:29;;;;;;;0.60;0.03;;;24.70;54.70;;;;;;4916550;29;20495;-78
2022/08/05 12:36:59;;;;;;;1.23;0.08;;;25.00;54.50;;;;;;4917502;29;20080;-78
2022/08/05 12:39:26;;;;;;;5.75;0.10;;;25.50;57.40;;;;;;4916869;29;20036;-78
2022/08/05 12:41:58;;;;;;;1.73;0.55;;;25.80;56.50;;;;;;4917477;29;20491;-78
2022/08/05 12:44:24;;;;;;;0.70;0.15;;;25.80;55.60;;;;;;4917430;29;20403;-79
2022/08/05 12:46:54;;;;;;;4.32;0.20;;;25.50;55.40;;;;;;4901346;29;20111;-78
2022/08/05 12:49:21;;;;;;;0.50;0.00;;;25.10;54.20;;;;;;4895214;29;20049;-78
2022/08/05 12:51:48;;;;;;;0.15;0.00;;;24.60;53.10;;;;;;4910395;29;20411;-78
2022/08/05 12:54:28;;;;;;;2.05;0.10;;;24.20;54.40;;;;;;4917971;29;20044;-78